Time;durP1;ratioP1;P1;durP2;ratioP2;P2;SDS_P1;SDS_P2;PMS_P1;PMS_P2;Temp;Humidity;BMP_temperature;BMP_pressure;BME280_temperature;BME280_humidity;BME280_pressure;Samples;Min_cycle;Max_cycle;Signal;HPM_P1;HPM_P2
2021/06/13 00:01:06;;;;;;;10.77;4.27;;;14.90;99.90;;;;;;5041456;28;20454;-85
2021/06/13 00:03:32;;;;;;;6.10;3.80;;;14.90;99.90;;;;;;5041049;28;20446;-86
2021/06/13 00:05:58;;;;;;;10.47;4.23;;;14.80;99.90;;;;;;5040855;28;20532;-86
2021/06/13 00:08:24;;;;;;;4.83;3.00;;;14.90;99.90;;;;;;5044967;28;20544;-85
2021/06/13 00:10:51;;;;;;;6.23;3.43;;;15.00;99.90;;;;;;5041413;28;20442;-84
2021/06/13 00:13:17;;;;;;;6.00;4.17;;;15.00;99.90;;;;;;5041419;28;20488;-85
2021/06/13 00:15:43;;;;;;;4.13;3.17;;;14.90;99.90;;;;;;5041255;28;20466;-87
2021/06/13 00:18:10;;;;;;;4.33;3.10;;;14.70;99.90;;;;;;5043312;28;20834;-85
2021/06/13 00:20:36;;;;;;;10.90;3.60;;;14.70;99.90;;;;;;5040787;28;20828;-86
2021/06/13 00:23:03;;;;;;;5.73;3.60;;;14.70;99.90;;;;;;5041139;28;20447;-86
2021/06/13 00:25:29;;;;;;;3.93;3.27;;;14.60;99.90;;;;;;5040640;28;20995;-85
2021/06/13 00:27:57;;;;;;;7.40;4.37;;;14.70;99.90;;;;;;5040941;28;20478;-85
2021/06/13 00:30:25;;;;;;;6.90;3.57;;;14.50;99.90;;;;;;5041826;28;20481;-86
2021/06/13 00:32:51;;;;;;;7.53;4.43;;;14.40;99.90;;;;;;5042416;28;20443;-85
2021/06/13 00:35:19;;;;;;;4.20;3.20;;;14.50;99.90;;;;;;5041865;28;20489;-85
2021/06/13 00:37:45;;;;;;;4.40;2.77;;;14.40;99.90;;;;;;5041896;28;20461;-86
2021/06/13 00:40:13;;;;;;;6.80;3.00;;;14.40;99.90;;;;;;5042214;28;20450;-86
2021/06/13 00:42:39;;;;;;;7.20;3.73;;;14.50;99.90;;;;;;5041358;28;20450;-86
2021/06/13 00:45:08;;;;;;;3.37;2.97;;;14.50;99.90;;;;;;5042154;28;20466;-87
2021/06/13 00:47:34;;;;;;;6.67;3.57;;;14.40;99.90;;;;;;5042252;28;20460;-86
2021/06/13 00:50:00;;;;;;;9.77;3.43;;;14.30;99.90;;;;;;5040685;28;20449;-86
2021/06/13 00:52:27;;;;;;;12.40;4.13;;;14.40;99.90;;;;;;5041217;28;20528;-85
2021/06/13 00:54:53;;;;;;;8.77;3.47;;;14.20;99.90;;;;;;5043259;28;20474;-85
2021/06/13 00:57:19;;;;;;;8.47;3.50;;;14.20;99.90;;;;;;5045099;28;20488;-85
2021/06/13 00:59:46;;;;;;;3.83;3.27;;;14.10;99.90;;;;;;5051274;28;20446;-85
2021/06/13 01:02:13;;;;;;;6.10;2.90;;;14.20;99.90;;;;;;5058711;28;20434;-85
2021/06/13 01:04:40;;;;;;;6.37;3.10;;;14.10;99.90;;;;;;5059454;28;20457;-85
2021/06/13 01:07:10;;;;;;;8.63;2.97;;;14.10;99.90;;;;;;5059978;28;20470;-84
2021/06/13 01:09:41;;;;;;;6.93;2.87;;;14.20;99.90;;;;;;5059424;28;20463;-85
2021/06/13 01:12:13;;;;;;;6.17;2.87;;;14.20;99.90;;;;;;5049265;28;20485;-86
2021/06/13 01:14:49;;;;;;;8.93;3.67;;;14.30;99.90;;;;;;5048208;28;20427;-86
2021/06/13 01:17:22;;;;;;;7.20;3.00;;;14.10;99.90;;;;;;5045289;28;20430;-86
2021/06/13 01:19:55;;;;;;;8.70;3.80;;;14.00;99.90;;;;;;5044326;28;20406;-86
2021/06/13 01:22:43;;;;;;;4.33;2.53;;;14.20;99.90;;;;;;5043946;28;20427;-86
2021/06/13 01:25:23;;;;;;;6.20;3.00;;;14.20;99.90;;;;;;5046554;28;20547;-86
2021/06/13 01:28:07;;;;;;;6.70;3.90;;;14.10;99.90;;;;;;5042570;28;20477;-86
2021/06/13 01:30:38;;;;;;;3.40;3.00;;;14.20;99.90;;;;;;5042116;28;20430;-86
2021/06/13 01:33:07;;;;;;;5.47;3.50;;;14.30;99.90;;;;;;5040267;28;20438;-86
2021/06/13 01:35:36;;;;;;;4.40;3.40;;;14.30;99.90;;;;;;5040916;28;20800;-86
2021/06/13 01:38:03;;;;;;;7.10;4.80;;;14.20;99.90;;;;;;5040651;28;20526;-86
2021/06/13 01:40:33;;;;;;;5.97;3.10;;;13.90;99.90;;;;;;5040870;28;20450;-85
2021/06/13 01:43:01;;;;;;;5.63;3.10;;;13.80;99.90;;;;;;5039233;28;20443;-86
2021/06/13 01:45:32;;;;;;;3.13;2.60;;;14.00;99.90;;;;;;5045019;28;20470;-85
2021/06/13 01:47:59;;;;;;;6.37;3.80;;;14.10;99.90;;;;;;5039085;28;20557;-85
2021/06/13 01:50:30;;;;;;;9.13;3.10;;;14.10;99.90;;;;;;5038816;28;20453;-86
2021/06/13 01:52:59;;;;;;;7.70;3.40;;;14.20;99.90;;;;;;5038546;28;20530;-85
2021/06/13 01:55:26;;;;;;;10.10;3.70;;;14.20;99.90;;;;;;5039822;28;20478;-85
2021/06/13 01:57:55;;;;;;;4.80;3.30;;;14.20;99.90;;;;;;5039954;28;20446;-85
2021/06/13 02:00:22;;;;;;;4.87;2.80;;;14.00;99.90;;;;;;5042436;28;20454;-85
2021/06/13 02:02:53;;;;;;;8.53;3.47;;;13.70;99.90;;;;;;5041970;28;20435;-85
2021/06/13 02:05:23;;;;;;;8.90;3.57;;;13.70;99.90;;;;;;5040678;28;20482;-85
2021/06/13 02:07:51;;;;;;;7.33;3.57;;;13.80;99.90;;;;;;5040497;28;20452;-85
2021/06/13 02:10:21;;;;;;;6.80;3.20;;;13.80;99.90;;;;;;5043254;28;20469;-86
2021/06/13 02:12:47;;;;;;;5.83;3.37;;;13.60;99.90;;;;;;5042106;28;20443;-85
2021/06/13 02:15:17;;;;;;;6.17;3.20;;;13.60;99.90;;;;;;5039699;28;20969;-86
2021/06/13 02:17:45;;;;;;;14.10;7.30;;;13.70;99.90;;;;;;5040486;28;20442;-86
2021/06/13 02:20:13;;;;;;;5.07;3.10;;;13.70;99.90;;;;;;5043262;28;20795;-85
2021/06/13 02:22:42;;;;;;;8.20;3.60;;;13.90;99.90;;;;;;5055137;28;20454;-85
2021/06/13 02:25:10;;;;;;;5.80;3.20;;;13.70;99.90;;;;;;5053199;28;20463;-85
2021/06/13 02:27:37;;;;;;;13.77;3.50;;;13.80;99.90;;;;;;5053067;28;20490;-85
2021/06/13 02:30:07;;;;;;;7.00;3.07;;;13.80;99.90;;;;;;5049179;28;20446;-85
2021/06/13 02:32:35;;;;;;;12.03;4.97;;;13.70;99.90;;;;;;5040686;28;21045;-85
2021/06/13 02:35:04;;;;;;;5.70;3.23;;;13.50;99.90;;;;;;5040431;28;20629;-85
2021/06/13 02:37:31;;;;;;;6.60;3.10;;;13.40;99.90;;;;;;5039581;28;20450;-85
2021/06/13 02:40:00;;;;;;;10.87;4.13;;;13.40;99.90;;;;;;5040881;28;20508;-85
2021/06/13 02:42:26;;;;;;;7.10;4.30;;;15.10;99.90;;;;;;5042145;28;20458;-85
2021/06/13 02:44:52;;;;;;;10.13;3.33;;;13.40;99.90;;;;;;5041028;28;20458;-85
2021/06/13 02:47:18;;;;;;;5.43;2.77;;;13.50;99.90;;;;;;5041050;28;20478;-85
2021/06/13 02:49:45;;;;;;;3.47;2.90;;;13.60;99.90;;;;;;5043785;28;20945;-86
2021/06/13 02:52:18;;;;;;;5.60;3.00;;;13.50;99.90;;;;;;5044901;28;20470;-85
2021/06/13 02:54:45;;;;;;;6.83;3.70;;;13.80;99.90;;;;;;5044353;28;20427;-85
2021/06/13 02:57:21;;;;;;;3.60;3.03;;;13.60;99.90;;;;;;5043992;28;20473;-84
2021/06/13 02:59:52;;;;;;;8.07;3.70;;;13.60;99.90;;;;;;5044759;28;20441;-85
2021/06/13 03:02:23;;;;;;;8.00;3.10;;;13.40;99.90;;;;;;5045984;28;20446;-85
2021/06/13 03:04:51;;;;;;;9.47;3.10;;;13.40;99.90;;;;;;5046656;28;20443;-85
2021/06/13 03:07:18;;;;;;;4.83;3.10;;;13.60;99.90;;;;;;5047148;28;20467;-85
2021/06/13 03:09:45;;;;;;;4.20;3.20;;;13.50;99.90;;;;;;5053042;28;20437;-84
2021/06/13 03:12:14;;;;;;;10.53;2.83;;;13.40;99.90;;;;;;5054459;28;20461;-85
2021/06/13 03:14:42;;;;;;;7.40;3.17;;;13.50;99.90;;;;;;5053801;28;20430;-85
2021/06/13 03:17:09;;;;;;;7.90;3.20;;;13.20;99.90;;;;;;5052234;28;20439;-85
2021/06/13 03:19:39;;;;;;;6.23;3.67;;;13.30;99.90;;;;;;5050075;28;20446;-85
2021/06/13 03:22:06;;;;;;;3.93;3.13;;;13.20;99.90;;;;;;5049241;28;20438;-85
2021/06/13 03:24:35;;;;;;;3.33;2.97;;;12.80;99.90;;;;;;5048846;28;20465;-85
2021/06/13 03:27:02;;;;;;;5.40;3.10;;;12.90;99.90;;;;;;5048508;28;20487;-86
2021/06/13 03:29:31;;;;;;;6.50;2.97;;;12.90;99.90;;;;;;5048828;28;20571;-85
2021/06/13 03:32:00;;;;;;;7.97;3.33;;;13.10;99.90;;;;;;5048804;28;20457;-86
2021/06/13 03:34:27;;;;;;;6.07;3.10;;;13.10;99.90;;;;;;5049748;28;20430;-86
2021/06/13 03:36:55;;;;;;;5.87;3.23;;;13.10;99.90;;;;;;5047781;28;20497;-86
2021/06/13 03:39:23;;;;;;;7.03;3.73;;;13.00;99.90;;;;;;5049729;28;20446;-84
2021/06/13 03:41:51;;;;;;;6.00;3.60;;;13.10;99.90;;;;;;5051700;28;20446;-84
2021/06/13 03:44:18;;;;;;;5.93;3.30;;;13.00;99.90;;;;;;5052203;28;20448;-84
2021/06/13 03:46:47;;;;;;;6.73;4.10;;;13.00;99.90;;;;;;5053330;28;20462;-84
2021/06/13 03:49:17;;;;;;;3.70;3.07;;;13.20;99.90;;;;;;5055475;28;20466;-84
2021/06/13 03:51:44;;;;;;;9.27;3.63;;;13.20;99.90;;;;;;5055819;28;20501;-84
2021/06/13 03:54:12;;;;;;;9.95;3.60;;;13.10;99.90;;;;;;5055206;28;20435;-85
2021/06/13 03:56:40;;;;;;;7.30;4.20;;;13.00;99.90;;;;;;5056058;28;20295;-85
2021/06/13 03:59:09;;;;;;;20.13;9.77;;;13.20;99.90;;;;;;5056215;28;20468;-84
2021/06/13 04:01:37;;;;;;;11.43;4.47;;;13.20;99.90;;;;;;5052481;28;20793;-84
2021/06/13 04:04:06;;;;;;;8.87;4.40;;;13.40;99.90;;;;;;5039389;28;20457;-85
2021/06/13 04:06:33;;;;;;;8.40;3.80;;;13.40;99.90;;;;;;5039414;28;21056;-85
2021/06/13 04:09:00;;;;;;;15.67;8.33;;;13.70;99.90;;;;;;5039308;28;20513;-85
2021/06/13 04:11:28;;;;;;;6.17;3.60;;;13.50;99.90;;;;;;5039555;28;20470;-85
2021/06/13 04:13:56;;;;;;;17.23;10.53;;;13.50;99.90;;;;;;5038926;28;20451;-84
2021/06/13 04:16:23;;;;;;;4.70;3.27;;;13.50;99.90;;;;;;5039426;28;20474;-84
2021/06/13 04:18:51;;;;;;;12.83;8.97;;;13.50;99.90;;;;;;5040180;28;20937;-84
2021/06/13 04:21:20;;;;;;;12.07;6.10;;;13.40;99.90;;;;;;5056422;28;20512;-85
2021/06/13 04:23:48;;;;;;;7.90;4.10;;;13.50;99.90;;;;;;5057822;28;20924;-84
2021/06/13 04:26:18;;;;;;;9.30;2.80;;;13.50;99.90;;;;;;5048758;28;20562;-85
2021/06/13 04:28:45;;;;;;;6.60;2.97;;;13.50;99.90;;;;;;5049122;28;20540;-84
2021/06/13 04:31:14;;;;;;;7.73;3.63;;;13.20;99.90;;;;;;5050278;28;20469;-84
2021/06/13 04:33:41;;;;;;;11.43;7.43;;;13.50;99.90;;;;;;5050369;28;20500;-85
2021/06/13 04:36:09;;;;;;;9.70;4.17;;;13.70;99.90;;;;;;5047639;28;20466;-85
2021/06/13 04:38:37;;;;;;;6.70;3.80;;;13.70;99.90;;;;;;5047084;28;20447;-85
2021/06/13 04:41:06;;;;;;;10.63;4.90;;;13.60;99.90;;;;;;5048291;28;20454;-84
2021/06/13 04:43:33;;;;;;;29.23;17.83;;;13.50;99.90;;;;;;5046477;28;20477;-85
2021/06/13 04:46:00;;;;;;;11.27;3.50;;;13.60;99.90;;;;;;5041813;28;20498;-85
2021/06/13 04:48:26;;;;;;;6.33;3.30;;;13.50;99.90;;;;;;5042713;28;20481;-85
2021/06/13 04:50:54;;;;;;;7.07;3.60;;;13.40;99.90;;;;;;5041377;28;20450;-85
2021/06/13 04:53:50;;;;;;;10.43;4.07;;;13.30;99.90;;;;;;5041851;28;20446;-86
2021/06/13 04:56:25;;;;;;;5.67;2.87;;;13.60;99.90;;;;;;5041015;28;20470;-85
2021/06/13 04:58:51;;;;;;;5.37;3.60;;;13.60;99.90;;;;;;5040701;28;20453;-85
2021/06/13 05:01:18;;;;;;;4.70;2.70;;;13.80;99.90;;;;;;5040297;28;20500;-85
2021/06/13 05:03:45;;;;;;;14.67;9.90;;;13.70;99.90;;;;;;5042426;28;20453;-85
2021/06/13 05:06:12;;;;;;;9.85;3.78;;;13.70;99.90;;;;;;5040742;28;20842;-85
2021/06/13 05:08:42;;;;;;;30.03;20.13;;;13.70;99.90;;;;;;5041971;28;20277;-85
2021/06/13 05:11:09;;;;;;;23.60;14.40;;;13.70;99.90;;;;;;5040578;28;20446;-85
2021/06/13 05:13:36;;;;;;;10.90;7.67;;;13.70;99.90;;;;;;5039163;28;21050;-85
2021/06/13 05:16:04;;;;;;;12.97;7.30;;;13.90;99.90;;;;;;5040585;28;20509;-86
2021/06/13 05:18:31;;;;;;;14.80;7.80;;;13.90;99.90;;;;;;5038317;28;21092;-85
2021/06/13 05:20:58;;;;;;;8.30;3.77;;;14.00;99.90;;;;;;5038877;28;20481;-85
2021/06/13 05:23:24;;;;;;;14.10;5.07;;;13.90;99.90;;;;;;5040110;28;20438;-86
2021/06/13 05:25:54;;;;;;;15.53;6.67;;;13.90;99.90;;;;;;5039641;28;20223;-86
2021/06/13 05:28:21;;;;;;;9.03;3.47;;;13.80;99.90;;;;;;5038671;28;20510;-85
2021/06/13 05:30:49;;;;;;;9.67;3.00;;;13.90;99.90;;;;;;5038331;28;20456;-85
2021/06/13 05:33:15;;;;;;;5.27;3.10;;;13.80;99.90;;;;;;5038181;28;20450;-85
2021/06/13 05:35:43;;;;;;;8.57;4.73;;;13.70;99.90;;;;;;5047001;28;20467;-84
2021/06/13 05:38:11;;;;;;;11.43;4.67;;;13.80;99.90;;;;;;5057021;28;20439;-83
2021/06/13 05:40:39;;;;;;;14.73;6.53;;;13.50;99.90;;;;;;5056260;28;20446;-85
2021/06/13 05:43:08;;;;;;;11.13;3.60;;;13.70;99.90;;;;;;5058401;28;20450;-83
2021/06/13 05:45:35;;;;;;;35.67;22.17;;;13.70;99.90;;;;;;5040606;28;20929;-85
2021/06/13 05:48:02;;;;;;;13.77;8.03;;;13.70;99.90;;;;;;5039109;28;21062;-84
2021/06/13 05:50:30;;;;;;;7.93;3.10;;;13.90;99.90;;;;;;5042584;28;20518;-85
2021/06/13 05:52:56;;;;;;;14.13;4.30;;;13.80;99.90;;;;;;5040263;28;20445;-86
2021/06/13 05:55:24;;;;;;;12.57;6.33;;;13.90;99.90;;;;;;5040297;28;20844;-85
2021/06/13 05:57:51;;;;;;;12.97;4.47;;;13.90;99.90;;;;;;5038563;28;20481;-86
2021/06/13 06:00:21;;;;;;;6.67;3.13;;;13.90;99.90;;;;;;5038158;28;20505;-85
2021/06/13 06:02:49;;;;;;;9.43;5.47;;;13.90;99.90;;;;;;5040261;28;20431;-85
2021/06/13 06:05:18;;;;;;;26.73;14.70;;;13.90;99.90;;;;;;5039089;28;20474;-85
2021/06/13 06:07:44;;;;;;;13.60;6.17;;;14.00;99.90;;;;;;5039078;28;20490;-84
2021/06/13 06:10:12;;;;;;;7.03;3.67;;;13.90;99.90;;;;;;5038906;28;20450;-85
2021/06/13 06:12:42;;;;;;;26.83;16.33;;;13.90;99.90;;;;;;5039681;28;20890;-85
2021/06/13 06:15:13;;;;;;;9.57;4.30;;;14.10;99.90;;;;;;5045136;28;20541;-85
2021/06/13 06:17:41;;;;;;;15.27;6.37;;;14.10;99.90;;;;;;5039345;28;20431;-85
2021/06/13 06:20:09;;;;;;;6.03;3.70;;;14.10;99.90;;;;;;5039071;28;20447;-85
2021/06/13 06:22:35;;;;;;;7.37;3.50;;;14.20;99.90;;;;;;5039904;28;20442;-86
2021/06/13 06:25:03;;;;;;;8.00;3.40;;;14.30;99.90;;;;;;5039114;28;20470;-85
2021/06/13 06:27:30;;;;;;;8.38;3.80;;;14.20;99.90;;;;;;5036530;28;20445;-85
2021/06/13 06:29:56;;;;;;;8.17;3.43;;;14.10;99.90;;;;;;5040338;28;20204;-85
2021/06/13 06:32:23;;;;;;;8.50;4.05;;;14.20;99.90;;;;;;5039340;28;20488;-85
2021/06/13 06:34:51;;;;;;;5.80;3.53;;;14.10;99.90;;;;;;5039011;28;20234;-85
2021/06/13 06:37:17;;;;;;;5.67;3.87;;;14.00;99.90;;;;;;5040813;28;20446;-86
2021/06/13 06:39:44;;;;;;;6.67;3.50;;;14.10;99.90;;;;;;5039553;28;20496;-86
2021/06/13 06:42:11;;;;;;;8.83;3.20;;;14.10;99.90;;;;;;5038961;28;20589;-86
2021/06/13 06:44:37;;;;;;;5.53;3.37;;;14.10;99.90;;;;;;5038644;28;20447;-84
2021/06/13 06:47:04;;;;;;;6.90;3.47;;;14.20;99.90;;;;;;5039790;28;20482;-86
2021/06/13 06:49:32;;;;;;;4.80;3.37;;;14.20;99.90;;;;;;5039299;28;20509;-85
2021/06/13 06:52:01;;;;;;;10.73;6.50;;;13.90;99.90;;;;;;5040809;28;20446;-86
2021/06/13 06:54:28;;;;;;;4.07;2.93;;;14.00;99.90;;;;;;5038461;28;20477;-86
2021/06/13 06:56:54;;;;;;;5.47;3.30;;;14.20;99.90;;;;;;5037139;28;20505;-86
2021/06/13 06:59:21;;;;;;;9.10;4.03;;;14.10;99.90;;;;;;5038384;28;20453;-87
2021/06/13 07:01:48;;;;;;;7.30;3.57;;;14.30;99.90;;;;;;5038611;28;20509;-85
2021/06/13 07:04:14;;;;;;;8.03;3.50;;;14.50;99.90;;;;;;5055632;28;20460;-85
2021/06/13 07:06:43;;;;;;;7.67;3.37;;;14.50;99.90;;;;;;5056861;28;20466;-85
2021/06/13 07:09:11;;;;;;;8.60;4.00;;;14.40;99.90;;;;;;5056682;28;20513;-85
2021/06/13 07:11:38;;;;;;;8.73;4.10;;;14.60;99.90;;;;;;5056690;28;20445;-85
2021/06/13 07:14:05;;;;;;;6.13;3.00;;;14.60;99.90;;;;;;5054993;28;20817;-85
2021/06/13 07:16:31;;;;;;;4.13;3.33;;;14.60;99.90;;;;;;5043489;28;20458;-85
2021/06/13 07:18:58;;;;;;;3.70;2.50;;;14.80;99.90;;;;;;5037770;28;20453;-86
2021/06/13 07:21:25;;;;;;;4.60;3.53;;;14.60;99.90;;;;;;5047809;28;20450;-85
2021/06/13 07:23:51;;;;;;;10.03;3.10;;;14.60;99.90;;;;;;5047753;28;20450;-85
2021/06/13 07:26:19;;;;;;;7.10;4.13;;;14.80;99.90;;;;;;5055373;28;20474;-85
2021/06/13 07:28:46;;;;;;;6.40;2.80;;;15.00;99.90;;;;;;5056604;28;20509;-85
2021/06/13 07:31:12;;;;;;;6.70;2.57;;;14.70;99.90;;;;;;5053876;28;20817;-86
2021/06/13 07:33:39;;;;;;;8.63;4.13;;;14.90;99.90;;;;;;5055409;28;20450;-86
2021/06/13 07:36:08;;;;;;;5.70;3.23;;;14.90;99.90;;;;;;5060713;28;20458;-85
2021/06/13 07:38:35;;;;;;;7.70;4.37;;;14.90;99.90;;;;;;5059275;28;20474;-85
2021/06/13 07:41:01;;;;;;;4.03;2.77;;;15.30;99.90;;;;;;5055579;28;20449;-84
2021/06/13 07:43:29;;;;;;;4.70;3.50;;;15.40;99.90;;;;;;5055458;28;20508;-85
2021/06/13 07:45:56;;;;;;;4.90;3.20;;;15.50;99.90;;;;;;5048188;28;20470;-86
2021/06/13 07:48:24;;;;;;;7.93;3.67;;;15.60;99.90;;;;;;5050839;28;20508;-85
2021/06/13 07:50:51;;;;;;;6.17;3.13;;;15.50;99.90;;;;;;5044554;28;20534;-85
2021/06/13 07:53:17;;;;;;;9.10;3.10;;;15.50;99.90;;;;;;5043311;28;20450;-85
2021/06/13 07:55:44;;;;;;;5.90;3.40;;;15.30;99.90;;;;;;5042568;28;20470;-86
2021/06/13 07:58:11;;;;;;;8.30;3.43;;;15.30;99.90;;;;;;5042925;28;20782;-86
2021/06/13 08:00:39;;;;;;;7.57;2.63;;;15.40;99.90;;;;;;5041015;28;20454;-85
2021/06/13 08:03:07;;;;;;;6.43;2.87;;;15.40;99.90;;;;;;5043327;28;20450;-84
2021/06/13 08:05:35;;;;;;;6.30;2.83;;;15.00;99.90;;;;;;5049509;28;20504;-84
2021/06/13 08:08:05;;;;;;;6.47;3.23;;;15.20;99.90;;;;;;5049321;28;20805;-85
2021/06/13 08:10:32;;;;;;;3.27;2.90;;;15.10;99.90;;;;;;5044050;28;20430;-85
2021/06/13 08:12:58;;;;;;;6.73;3.10;;;15.20;99.90;;;;;;5059154;28;20442;-84
2021/06/13 08:15:26;;;;;;;6.27;3.00;;;15.20;99.90;;;;;;5060277;28;20454;-85
2021/06/13 08:17:54;;;;;;;11.53;3.60;;;15.30;99.90;;;;;;5058606;28;20435;-85
2021/06/13 08:20:21;;;;;;;7.57;3.30;;;15.40;99.90;;;;;;5051043;28;20520;-85
2021/06/13 08:22:48;;;;;;;7.77;4.10;;;15.50;99.90;;;;;;5041003;28;20450;-86
2021/06/13 08:25:19;;;;;;;6.20;2.97;;;15.50;99.90;;;;;;5051630;28;20482;-85
2021/06/13 08:27:45;;;;;;;12.87;5.70;;;15.50;99.90;;;;;;5055744;28;20461;-85
2021/06/13 08:30:16;;;;;;;6.10;2.80;;;15.60;99.90;;;;;;5044075;28;20506;-86
2021/06/13 08:32:43;;;;;;;12.03;3.20;;;15.50;99.90;;;;;;5040022;28;20501;-86
2021/06/13 08:35:12;;;;;;;4.97;2.60;;;15.40;99.90;;;;;;5041071;28;20505;-86
2021/06/13 08:37:40;;;;;;;7.10;2.73;;;15.50;99.90;;;;;;5040471;28;20779;-86
2021/06/13 08:40:09;;;;;;;7.87;3.83;;;15.60;99.90;;;;;;5040585;28;20443;-86
2021/06/13 08:42:38;;;;;;;2.80;2.20;;;15.60;99.90;;;;;;5040153;28;21018;-86
2021/06/13 08:45:07;;;;;;;4.90;2.30;;;15.70;99.90;;;;;;5039968;28;20467;-86
2021/06/13 08:47:34;;;;;;;12.93;3.07;;;15.70;99.90;;;;;;5044901;28;20466;-86
2021/06/13 08:50:02;;;;;;;10.57;2.73;;;15.70;99.90;;;;;;5054039;28;20496;-86
2021/06/13 08:52:30;;;;;;;3.00;2.70;;;15.70;99.90;;;;;;5044909;28;20450;-86
2021/06/13 08:54:59;;;;;;;4.20;2.90;;;15.90;99.90;;;;;;5040607;28;20996;-85
2021/06/13 08:57:26;;;;;;;7.50;3.17;;;15.80;99.90;;;;;;5043262;28;21026;-86
2021/06/13 08:59:56;;;;;;;7.63;3.57;;;15.50;99.90;;;;;;5044341;28;20450;-86
2021/06/13 09:02:23;;;;;;;6.30;3.17;;;15.80;99.90;;;;;;5041178;28;21020;-86
2021/06/13 09:04:51;;;;;;;11.07;3.90;;;15.70;99.90;;;;;;5040019;28;20478;-85
2021/06/13 09:07:23;;;;;;;5.17;3.60;;;15.70;99.90;;;;;;5039470;28;20457;-85
2021/06/13 09:09:52;;;;;;;7.23;3.43;;;15.90;99.90;;;;;;5041726;28;20542;-86
2021/06/13 09:12:19;;;;;;;15.27;4.20;;;15.90;99.90;;;;;;5043789;28;20450;-86
2021/06/13 09:14:49;;;;;;;7.50;3.40;;;15.70;99.90;;;;;;5041647;28;20489;-85
2021/06/13 09:17:17;;;;;;;5.43;3.73;;;15.60;99.90;;;;;;5042358;28;20520;-86
2021/06/13 09:20:17;;;;;;;10.10;3.60;;;15.60;99.90;;;;;;5042419;28;20446;-86
2021/06/13 09:23:05;;;;;;;7.43;3.77;;;15.50;99.90;;;;;;5039579;28;20466;-87
2021/06/13 09:25:34;;;;;;;9.60;3.00;;;15.50;99.90;;;;;;5039538;28;20516;-86
2021/06/13 09:28:09;;;;;;;8.10;3.17;;;15.60;99.90;;;;;;5040277;28;20545;-86
2021/06/13 09:30:39;;;;;;;6.20;3.47;;;15.30;99.90;;;;;;5039414;28;20492;-85
2021/06/13 09:33:08;;;;;;;5.23;2.90;;;15.50;99.90;;;;;;5039385;28;20446;-85
2021/06/13 09:35:42;;;;;;;7.30;3.23;;;15.60;99.90;;;;;;5039651;28;20517;-86
2021/06/13 09:38:15;;;;;;;7.87;3.50;;;15.40;99.90;;;;;;5039529;28;20431;-87
2021/06/13 09:40:46;;;;;;;5.87;3.83;;;15.10;99.90;;;;;;5039797;28;20446;-86
2021/06/13 09:43:18;;;;;;;6.97;3.57;;;14.80;99.90;;;;;;5039679;28;20431;-86
2021/06/13 09:45:51;;;;;;;9.80;4.03;;;14.70;99.90;;;;;;5039071;28;20462;-85
2021/06/13 09:48:18;;;;;;;4.10;3.67;;;14.60;99.90;;;;;;5040172;28;20469;-85
2021/06/13 09:50:47;;;;;;;7.00;4.20;;;14.80;99.90;;;;;;5040909;28;20824;-86
2021/06/13 09:53:26;;;;;;;5.50;3.70;;;14.70;99.90;;;;;;5042269;28;20937;-86
2021/06/13 09:56:07;;;;;;;7.10;3.67;;;14.60;99.90;;;;;;5042689;28;20516;-86
2021/06/13 09:58:34;;;;;;;7.13;4.40;;;14.70;99.90;;;;;;5042371;28;20430;-85
2021/06/13 10:01:08;;;;;;;5.80;3.43;;;14.90;99.90;;;;;;5038857;28;20450;-85
2021/06/13 10:03:37;;;;;;;7.40;3.80;;;15.00;99.90;;;;;;5041242;28;20495;-86
2021/06/13 10:06:18;;;;;;;6.77;3.20;;;15.10;99.90;;;;;;5039372;28;20482;-87
2021/06/13 10:08:46;;;;;;;8.40;3.77;;;15.20;99.90;;;;;;5038437;28;20427;-86
2021/06/13 10:11:14;;;;;;;6.90;3.37;;;15.10;99.90;;;;;;5038849;28;20450;-86
2021/06/13 10:13:44;;;;;;;4.30;3.47;;;15.00;99.90;;;;;;5037719;28;20450;-86
2021/06/13 10:16:20;;;;;;;4.40;3.40;;;15.20;99.90;;;;;;5038532;28;20542;-86
2021/06/13 10:18:51;;;;;;;7.17;3.73;;;15.10;99.90;;;;;;5038924;28;20477;-86
2021/06/13 10:21:18;;;;;;;7.90;3.77;;;15.40;99.90;;;;;;5039723;28;20505;-85
2021/06/13 10:23:46;;;;;;;9.40;4.03;;;15.70;99.90;;;;;;5038934;28;20496;-86
2021/06/13 10:26:14;;;;;;;6.10;3.20;;;15.70;99.90;;;;;;5040577;28;20490;-85
2021/06/13 10:28:41;;;;;;;5.90;4.30;;;15.60;99.90;;;;;;5039062;28;20447;-85
2021/06/13 10:31:07;;;;;;;9.33;4.20;;;15.80;99.90;;;;;;5039204;28;20477;-86
2021/06/13 10:33:37;;;;;;;8.70;4.07;;;15.80;99.90;;;;;;5039317;28;20446;-86
2021/06/13 10:36:03;;;;;;;7.73;3.80;;;15.80;99.90;;;;;;5039087;28;20465;-86
2021/06/13 10:38:30;;;;;;;6.17;3.80;;;15.60;99.90;;;;;;5039568;28;20450;-86
2021/06/13 10:40:57;;;;;;;6.90;3.33;;;15.80;99.90;;;;;;5037728;28;20470;-86
2021/06/13 10:43:28;;;;;;;10.73;3.93;;;16.00;99.90;;;;;;5042238;28;20458;-86
2021/06/13 10:46:04;;;;;;;13.30;4.10;;;15.80;99.90;;;;;;5046390;28;20479;-86
2021/06/13 10:48:37;;;;;;;5.47;3.77;;;15.90;99.90;;;;;;5056634;28;20423;-85
2021/06/13 10:51:29;;;;;;;4.23;3.80;;;15.70;99.90;;;;;;5052677;28;20544;-85
2021/06/13 10:54:15;;;;;;;7.03;4.03;;;15.70;99.90;;;;;;5044746;28;20427;-85
2021/06/13 10:56:42;;;;;;;5.17;3.53;;;15.80;99.90;;;;;;5050072;28;20454;-86
2021/06/13 10:59:14;;;;;;;4.90;3.27;;;16.00;99.90;;;;;;5055657;28;20541;-85
2021/06/13 11:01:57;;;;;;;6.20;4.20;;;16.00;99.90;;;;;;5054247;28;20454;-85
2021/06/13 11:04:44;;;;;;;8.27;4.47;;;16.20;99.90;;;;;;5056126;28;20427;-85
2021/06/13 11:07:11;;;;;;;9.67;4.03;;;16.20;99.90;;;;;;5040360;28;20454;-86
2021/06/13 11:10:13;;;;;;;6.47;4.03;;;16.40;99.90;;;;;;5040401;28;20559;-86
2021/06/13 11:12:46;;;;;;;6.03;3.70;;;16.40;99.90;;;;;;5044217;28;20431;-87
2021/06/13 11:15:18;;;;;;;6.53;3.90;;;16.40;99.90;;;;;;5045141;28;20497;-86
2021/06/13 11:17:56;;;;;;;13.67;4.70;;;17.30;99.90;;;;;;5049875;28;20434;-87
2021/06/13 11:20:49;;;;;;;8.70;5.73;;;16.20;99.90;;;;;;5056444;28;20430;-86
2021/06/13 11:23:31;;;;;;;6.07;4.20;;;16.30;99.90;;;;;;5042065;28;20441;-85
2021/06/13 11:25:59;;;;;;;8.40;4.80;;;16.20;99.90;;;;;;5039458;28;20497;-85
2021/06/13 11:28:31;;;;;;;4.67;4.07;;;16.20;99.90;;;;;;5040522;28;20450;-85
2021/06/13 11:31:16;;;;;;;9.13;4.33;;;16.40;99.90;;;;;;5038801;28;20556;-86
2021/06/13 11:33:47;;;;;;;9.40;4.43;;;16.60;99.90;;;;;;5038640;28;20918;-85
2021/06/13 11:36:28;;;;;;;8.07;3.70;;;16.50;99.90;;;;;;5041892;28;20538;-84
2021/06/13 11:39:32;;;;;;;11.10;4.13;;;16.70;99.90;;;;;;5046169;28;20466;-84
2021/06/13 11:42:10;;;;;;;6.70;4.20;;;16.60;99.90;;;;;;5040005;28;20863;-86
2021/06/13 11:44:49;;;;;;;8.03;3.90;;;16.50;99.90;;;;;;5039311;28;20945;-85
2021/06/13 11:47:34;;;;;;;7.23;3.53;;;16.60;99.90;;;;;;5052883;28;20482;-86
2021/06/13 11:50:06;;;;;;;6.70;3.30;;;16.80;99.90;;;;;;5046307;28;20466;-85
2021/06/13 11:53:12;;;;;;;8.33;4.30;;;16.80;99.90;;;;;;5038551;28;20446;-86
2021/06/13 11:56:00;;;;;;;6.60;4.10;;;17.10;99.90;;;;;;5026244;28;20868;-86
2021/06/13 11:58:27;;;;;;;7.17;4.10;;;17.10;99.90;;;;;;5037784;28;20828;-86
2021/06/13 12:00:58;;;;;;;5.20;3.30;;;17.10;99.90;;;;;;5037528;28;20442;-86
2021/06/13 12:03:27;;;;;;;7.70;3.70;;;16.90;99.90;;;;;;5037492;28;20492;-86
2021/06/13 12:06:00;;;;;;;5.10;3.37;;;16.90;99.90;;;;;;5037613;28;20844;-85
2021/06/13 12:08:27;;;;;;;8.20;4.20;;;16.60;99.90;;;;;;5041749;28;20835;-85
2021/06/13 12:10:54;;;;;;;8.37;3.80;;;16.80;99.90;;;;;;5042137;28;20536;-85
2021/06/13 12:13:28;;;;;;;7.87;5.53;;;16.80;99.90;;;;;;5042327;28;20453;-86
2021/06/13 12:15:54;;;;;;;7.23;4.47;;;16.80;99.90;;;;;;5043317;28;20470;-86
2021/06/13 12:18:21;;;;;;;4.67;2.93;;;17.20;99.90;;;;;;5043278;28;20497;-86
2021/06/13 12:20:58;;;;;;;5.97;4.10;;;17.40;99.90;;;;;;5042630;28;20504;-86
2021/06/13 12:23:32;;;;;;;6.57;4.17;;;17.30;99.90;;;;;;5042920;28;20439;-86
2021/06/13 12:28:42;;;;;;;6.47;3.90;;;17.60;99.90;;;;;;5010978;28;20454;-86
2021/06/13 12:31:09;;;;;;;5.97;3.90;;;17.80;99.90;;;;;;5042592;28;20474;-86
2021/06/13 12:33:37;;;;;;;4.10;3.13;;;17.80;99.90;;;;;;5041188;28;20450;-86
2021/06/13 12:36:07;;;;;;;5.87;4.47;;;17.70;99.90;;;;;;5042549;28;20474;-86
2021/06/13 12:38:36;;;;;;;11.00;3.47;;;18.00;99.90;;;;;;5042124;28;20427;-87
2021/06/13 12:41:03;;;;;;;5.60;4.43;;;18.20;99.90;;;;;;5042111;28;20446;-86
2021/06/13 12:43:36;;;;;;;5.30;3.60;;;18.30;99.90;;;;;;5043823;28;20442;-86
2021/06/13 12:46:06;;;;;;;4.33;3.00;;;18.10;99.90;;;;;;5041692;28;21013;-85
2021/06/13 12:48:33;;;;;;;11.20;3.73;;;18.10;99.90;;;;;;5044405;28;20450;-86
2021/06/13 12:51:00;;;;;;;5.80;4.13;;;17.90;99.90;;;;;;5043765;28;20483;-86
2021/06/13 12:53:33;;;;;;;8.70;3.87;;;17.80;99.90;;;;;;5042226;28;20523;-87
2021/06/13 12:56:00;;;;;;;9.30;3.87;;;17.80;99.90;;;;;;5041687;28;20470;-85
2021/06/13 12:58:30;;;;;;;8.07;4.90;;;17.70;99.90;;;;;;5042063;28;20474;-87
2021/06/13 13:00:58;;;;;;;5.73;3.70;;;18.00;99.90;;;;;;5041977;28;20427;-85